createdAt,value
2023-05-14T00:00:19.156Z,883.00
2023-05-14T00:01:19.999Z,887.00
2023-05-14T00:02:20.954Z,855.00
2023-05-14T00:03:21.839Z,848.00
2023-05-14T00:04:22.746Z,827.00
2023-05-14T00:05:23.578Z,826.00
2023-05-14T00:06:24.465Z,826.00
2023-05-14T00:07:25.349Z,823.00
2023-05-14T00:08:26.229Z,825.00
2023-05-14T00:09:27.075Z,826.00
2023-05-14T00:10:27.940Z,809.00
2023-05-14T00:11:28.803Z,802.00
2023-05-14T00:12:29.729Z,783.00
2023-05-14T00:13:30.601Z,784.00
2023-05-14T00:14:31.468Z,782.00
2023-05-14T00:15:34.177Z,777.00
2023-05-14T00:16:32.995Z,776.00
2023-05-14T00:17:33.444Z,771.00
2023-05-14T00:18:34.354Z,770.00
2023-05-14T00:19:35.191Z,751.00
2023-05-14T00:20:36.048Z,743.00
2023-05-14T00:21:36.925Z,740.00
2023-05-14T00:22:37.820Z,741.00
2023-05-14T00:23:38.682Z,743.00
2023-05-14T00:24:39.540Z,741.00
2023-05-14T00:25:40.406Z,723.00
2023-05-14T00:26:41.267Z,716.00
2023-05-14T00:27:42.160Z,703.00
2023-05-14T00:28:43.019Z,692.00
2023-05-14T00:29:43.884Z,681.00
2023-05-14T00:30:44.765Z,678.00
2023-05-14T00:31:45.762Z,672.00
2023-05-14T00:32:46.189Z,674.00
2023-05-14T00:33:47.042Z,672.00
2023-05-14T00:34:47.900Z,663.00
2023-05-14T00:35:48.765Z,653.00
2023-05-14T00:36:49.656Z,648.00
2023-05-14T00:37:50.622Z,652.00
2023-05-14T00:38:51.484Z,655.00
2023-05-14T00:39:52.341Z,658.00
2023-05-14T00:40:53.211Z,655.00
2023-05-14T00:41:54.072Z,655.00
2023-05-14T00:42:54.963Z,654.00
2023-05-14T00:43:55.826Z,649.00
2023-05-14T00:44:56.695Z,643.00
2023-05-14T00:45:57.553Z,640.00
2023-05-14T00:46:58.593Z,635.00
2023-05-14T00:47:59.250Z,634.00
2023-05-14T00:48:59.633Z,635.00
2023-05-14T00:50:00.460Z,630.00
2023-05-14T00:51:01.323Z,625.00
2023-05-14T00:52:02.232Z,627.00
2023-05-14T00:53:03.105Z,628.00
2023-05-14T00:54:03.917Z,628.00
2023-05-14T00:55:04.784Z,626.00
2023-05-14T00:56:05.641Z,628.00
2023-05-14T00:57:06.507Z,628.00
2023-05-14T00:58:07.413Z,623.00
2023-05-14T00:59:08.271Z,622.00
2023-05-14T01:00:09.136Z,622.00
2023-05-14T01:01:10.027Z,620.00
2023-05-14T01:02:10.861Z,623.00
2023-05-14T01:03:12.016Z,620.00
2023-05-14T01:04:12.422Z,618.00
2023-05-14T01:05:13.280Z,618.00
2023-05-14T01:06:14.140Z,613.00
2023-05-14T01:07:15.025Z,608.00
2023-05-14T01:08:15.898Z,608.00
2023-05-14T01:09:16.761Z,613.00
2023-05-14T01:10:17.633Z,614.00
2023-05-14T01:11:18.487Z,612.00
2023-05-14T01:12:19.350Z,605.00
2023-05-14T01:13:20.268Z,598.00
2023-05-14T01:14:21.141Z,590.00
2023-05-14T01:15:22.006Z,592.00
2023-05-14T01:16:22.904Z,590.00
2023-05-14T01:17:23.738Z,589.00
2023-05-14T01:18:24.683Z,591.00
2023-05-14T01:19:25.510Z,590.00
2023-05-14T01:20:26.602Z,582.00
2023-05-14T01:21:26.986Z,582.00
2023-05-14T01:22:27.878Z,584.00
2023-05-14T01:23:28.756Z,581.00
2023-05-14T01:24:29.622Z,575.00
2023-05-14T01:25:30.477Z,573.00
2023-05-14T01:26:31.358Z,565.00
2023-05-14T01:27:32.241Z,566.00
2023-05-14T01:28:33.122Z,569.00
2023-05-14T01:29:33.979Z,569.00
2023-05-14T01:30:34.864Z,569.00
2023-05-14T01:31:35.826Z,571.00
2023-05-14T01:32:36.727Z,573.00
2023-05-14T01:33:37.566Z,571.00
2023-05-14T01:34:38.423Z,570.00
2023-05-14T01:35:39.334Z,571.00
2023-05-14T01:36:40.197Z,570.00
2023-05-14T01:37:41.081Z,564.00
2023-05-14T01:38:41.921Z,566.00
2023-05-14T01:39:42.785Z,565.00
2023-05-14T01:40:43.700Z,565.00
2023-05-14T01:41:44.556Z,567.00
2023-05-14T01:42:45.436Z,566.00
2023-05-14T01:43:46.281Z,566.00
2023-05-14T01:44:47.149Z,564.00
2023-05-14T01:45:48.103Z,563.00
2023-05-14T01:46:48.925Z,564.00
2023-05-14T01:47:49.813Z,564.00
2023-05-14T01:48:50.651Z,564.00
2023-05-14T01:49:51.515Z,561.00
2023-05-14T01:50:52.443Z,560.00
2023-05-14T01:51:53.293Z,554.00
2023-05-14T01:52:54.177Z,551.00
2023-05-14T01:53:55.024Z,552.00
2023-05-14T01:54:55.888Z,557.00
2023-05-14T01:55:56.770Z,560.00
2023-05-14T01:56:57.641Z,557.00
2023-05-14T01:57:58.632Z,556.00
2023-05-14T01:58:59.463Z,556.00
2023-05-14T02:00:00.328Z,555.00
2023-05-14T02:01:01.298Z,554.00
2023-05-14T02:02:02.214Z,553.00
2023-05-14T02:03:03.080Z,554.00
2023-05-14T02:04:04.015Z,556.00
2023-05-14T02:05:06.779Z,556.00
2023-05-14T02:06:05.912Z,555.00
2023-05-14T02:07:06.776Z,554.00
2023-05-14T02:08:07.671Z,555.00
2023-05-14T02:09:08.509Z,555.00
2023-05-14T02:10:09.378Z,555.00
2023-05-14T02:11:10.357Z,554.00
2023-05-14T02:12:11.240Z,557.00
2023-05-14T02:13:12.079Z,557.00
2023-05-14T02:14:12.946Z,556.00
2023-05-14T02:15:13.810Z,554.00
2023-05-14T02:16:14.781Z,550.00
2023-05-14T02:17:15.644Z,548.00
2023-05-14T02:18:16.508Z,548.00
2023-05-14T02:19:17.910Z,547.00
2023-05-14T02:20:18.164Z,547.00
2023-05-14T02:21:19.157Z,546.00
2023-05-14T02:22:19.524Z,544.00
2023-05-14T02:23:23.806Z,543.00
2023-05-14T02:24:22.156Z,540.00
2023-05-14T02:25:22.017Z,540.00
2023-05-14T02:26:22.928Z,542.00
2023-05-14T02:27:23.794Z,541.00
2023-05-14T02:28:24.657Z,541.00
2023-05-14T02:29:25.520Z,539.00
2023-05-14T02:30:26.384Z,540.00
2023-05-14T02:31:27.318Z,540.00
2023-05-14T02:32:28.440Z,538.00
2023-05-14T02:33:28.944Z,537.00
2023-05-14T02:34:29.776Z,536.00
2023-05-14T02:35:30.642Z,535.00
2023-05-14T02:36:31.511Z,534.00
2023-05-14T02:37:32.383Z,533.00
2023-05-14T02:38:33.266Z,531.00
2023-05-14T02:39:34.116Z,533.00
2023-05-14T02:40:34.966Z,533.00
2023-05-14T02:41:35.874Z,532.00
2023-05-14T02:42:36.748Z,529.00
2023-05-14T02:43:37.604Z,527.00
2023-05-14T02:44:38.467Z,525.00
2023-05-14T02:45:39.336Z,525.00
2023-05-14T02:46:40.350Z,524.00
2023-05-14T02:47:40.740Z,523.00
2023-05-14T02:48:41.266Z,523.00
2023-05-14T02:49:42.115Z,523.00
2023-05-14T02:50:42.989Z,521.00
2023-05-14T02:51:43.890Z,522.00
2023-05-14T02:52:44.747Z,521.00
2023-05-14T02:53:45.635Z,520.00
2023-05-14T02:54:46.474Z,520.00
2023-05-14T02:55:47.338Z,516.00
2023-05-14T02:56:48.298Z,515.00
2023-05-14T02:57:49.169Z,513.00
2023-05-14T02:58:50.033Z,515.00
2023-05-14T02:59:50.890Z,515.00
2023-05-14T03:00:51.721Z,514.00
2023-05-14T03:01:52.456Z,514.00
2023-05-14T03:02:53.289Z,516.00
2023-05-14T03:03:53.578Z,515.00
2023-05-14T03:04:54.440Z,512.00
2023-05-14T03:05:55.308Z,512.00
2023-05-14T03:06:56.222Z,509.00
2023-05-14T03:07:57.085Z,507.00
2023-05-14T03:08:57.974Z,508.00
2023-05-14T03:09:58.811Z,511.00
2023-05-14T03:10:59.680Z,510.00
2023-05-14T03:12:00.596Z,510.00
2023-05-14T03:13:01.444Z,509.00
2023-05-14T03:14:02.311Z,510.00
2023-05-14T03:15:03.183Z,510.00
2023-05-14T03:16:04.046Z,507.00
2023-05-14T03:17:05.069Z,505.00
2023-05-14T03:18:05.487Z,506.00
2023-05-14T03:19:06.404Z,504.00
2023-05-14T03:20:07.233Z,504.00
2023-05-14T03:21:08.094Z,506.00
2023-05-14T03:22:09.011Z,506.00
2023-05-14T03:23:09.884Z,503.00
2023-05-14T03:24:10.775Z,504.00
2023-05-14T03:25:11.605Z,500.00
2023-05-14T03:26:12.490Z,501.00
2023-05-14T03:27:13.474Z,500.00
2023-05-14T03:28:13.829Z,503.00
2023-05-14T03:29:14.694Z,501.00
2023-05-14T03:30:15.558Z,502.00
2023-05-14T03:31:16.451Z,500.00
2023-05-14T03:32:17.331Z,498.00
2023-05-14T03:33:18.196Z,499.00
2023-05-14T03:34:19.066Z,499.00
2023-05-14T03:35:19.920Z,498.00
2023-05-14T03:36:20.798Z,498.00
2023-05-14T03:37:21.692Z,495.00
2023-05-14T03:38:22.552Z,498.00
2023-05-14T03:39:23.454Z,493.00
2023-05-14T03:40:24.501Z,494.00
2023-05-14T03:41:25.039Z,494.00
2023-05-14T03:42:26.097Z,494.00
2023-05-14T03:43:26.459Z,496.00
2023-05-14T03:44:27.328Z,496.00
2023-05-14T03:45:28.215Z,496.00
2023-05-14T03:46:29.052Z,493.00
2023-05-14T03:47:30.032Z,489.00
2023-05-14T03:48:30.970Z,490.00
2023-05-14T03:49:31.823Z,491.00
2023-05-14T03:50:32.684Z,489.00
2023-05-14T03:51:33.542Z,490.00
2023-05-14T03:52:34.454Z,491.00
2023-05-14T03:53:35.320Z,491.00
2023-05-14T03:54:36.202Z,492.00
2023-05-14T03:55:37.064Z,496.00
2023-05-14T03:56:37.913Z,498.00
2023-05-14T03:57:38.798Z,499.00
2023-05-14T03:58:39.692Z,500.00
2023-05-14T03:59:40.529Z,499.00
2023-05-14T04:00:41.393Z,500.00
2023-05-14T04:01:42.255Z,501.00
2023-05-14T04:02:43.228Z,496.00
2023-05-14T04:03:44.224Z,498.00
2023-05-14T04:04:44.665Z,500.00
2023-05-14T04:05:45.550Z,502.00
2023-05-14T04:06:46.413Z,502.00
2023-05-14T04:07:47.376Z,502.00
2023-05-14T04:08:48.239Z,501.00
2023-05-14T04:09:49.129Z,502.00
2023-05-14T04:10:49.971Z,497.00
2023-05-14T04:11:50.831Z,500.00
2023-05-14T04:12:51.754Z,503.00
2023-05-14T04:13:52.619Z,505.00
2023-05-14T04:14:53.482Z,507.00
2023-05-14T04:15:54.366Z,507.00
2023-05-14T04:16:55.211Z,507.00
2023-05-14T04:17:56.168Z,510.00
2023-05-14T04:18:57.042Z,512.00
2023-05-14T04:19:57.886Z,510.00
2023-05-14T04:20:58.743Z,509.00
2023-05-14T04:21:59.608Z,508.00
2023-05-14T04:23:00.509Z,509.00
2023-05-14T04:24:01.372Z,509.00
2023-05-14T04:25:02.261Z,512.00
2023-05-14T04:26:03.114Z,513.00
2023-05-14T04:27:03.986Z,515.00
2023-05-14T04:28:04.995Z,517.00
2023-05-14T04:29:05.350Z,517.00
2023-05-14T04:30:06.198Z,518.00
2023-05-14T04:31:07.062Z,516.00
2023-05-14T04:32:08.067Z,516.00
2023-05-14T04:33:08.546Z,516.00
2023-05-14T04:34:09.403Z,514.00
2023-05-14T04:35:10.258Z,510.00
2023-05-14T04:36:11.122Z,504.00
2023-05-14T04:37:11.984Z,502.00
2023-05-14T04:38:12.897Z,502.00
2023-05-14T04:39:13.742Z,500.00
2023-05-14T04:40:14.652Z,498.00
2023-05-14T04:41:15.471Z,496.00
2023-05-14T04:42:16.346Z,494.00
2023-05-14T04:43:17.254Z,494.00
2023-05-14T04:44:18.118Z,492.00
2023-05-14T04:45:18.980Z,493.00
2023-05-14T04:46:19.901Z,492.00
2023-05-14T04:47:20.801Z,490.00
2023-05-14T04:48:21.710Z,486.00
2023-05-14T04:49:22.563Z,487.00
2023-05-14T04:50:23.695Z,488.00
2023-05-14T04:51:24.121Z,485.00
2023-05-14T04:52:24.988Z,483.00
2023-05-14T04:53:25.991Z,481.00
2023-05-14T04:54:26.417Z,478.00
2023-05-14T04:55:27.296Z,474.00
2023-05-14T04:56:28.141Z,471.00
2023-05-14T04:57:29.000Z,469.00
2023-05-14T04:58:30.539Z,466.00
2023-05-14T04:59:30.396Z,466.00
2023-05-14T05:00:31.264Z,466.00
2023-05-14T05:01:32.178Z,464.00
2023-05-14T05:02:33.042Z,468.00
2023-05-14T05:03:33.994Z,465.00
2023-05-14T05:04:41.827Z,466.00
2023-05-14T05:05:35.677Z,467.00
2023-05-14T05:06:36.538Z,467.00
2023-05-14T05:07:37.405Z,465.00
2023-05-14T05:08:38.287Z,464.00
2023-05-14T05:09:39.152Z,464.00
2023-05-14T05:10:40.044Z,464.00
2023-05-14T05:11:40.879Z,464.00
2023-05-14T05:12:41.749Z,463.00
2023-05-14T05:13:42.666Z,466.00
2023-05-14T05:14:43.517Z,465.00
2023-05-14T05:15:44.416Z,464.00
2023-05-14T05:16:45.246Z,462.00
2023-05-14T05:17:46.142Z,463.00
2023-05-14T05:18:47.070Z,462.00
2023-05-14T05:19:47.481Z,463.00
2023-05-14T05:20:48.343Z,462.00
2023-05-14T05:21:49.204Z,459.00
2023-05-14T05:22:50.077Z,458.00
2023-05-14T05:23:50.973Z,459.00
2023-05-14T05:24:51.849Z,457.00
2023-05-14T05:25:52.725Z,459.00
2023-05-14T05:26:53.566Z,460.00
2023-05-14T05:27:54.433Z,458.00
2023-05-14T05:28:55.325Z,456.00
2023-05-14T05:29:56.181Z,454.00
2023-05-14T05:30:57.085Z,454.00
2023-05-14T05:31:57.919Z,453.00
2023-05-14T05:32:58.846Z,451.00
2023-05-14T05:33:59.703Z,452.00
2023-05-14T05:35:00.566Z,452.00
2023-05-14T05:36:01.431Z,453.00
2023-05-14T05:37:02.294Z,452.00
2023-05-14T05:38:03.160Z,453.00
2023-05-14T05:39:04.059Z,451.00
2023-05-14T05:40:04.927Z,449.00
2023-05-14T05:41:05.820Z,451.00
2023-05-14T05:42:06.655Z,453.00
2023-05-14T05:43:07.515Z,452.00
2023-05-14T05:44:08.406Z,452.00
2023-05-14T05:45:09.263Z,454.00
2023-05-14T05:46:10.175Z,454.00
2023-05-14T05:47:11.021Z,456.00
2023-05-14T05:48:11.891Z,454.00
2023-05-14T05:49:12.775Z,457.00
2023-05-14T05:50:13.654Z,455.00
2023-05-14T05:51:14.508Z,457.00
2023-05-14T05:52:15.367Z,457.00
2023-05-14T05:53:16.248Z,458.00
2023-05-14T05:54:17.129Z,459.00
2023-05-14T05:55:17.993Z,460.00
2023-05-14T05:56:18.879Z,462.00
2023-05-14T05:57:19.728Z,461.00
2023-05-14T05:58:20.586Z,461.00
2023-05-14T05:59:21.491Z,462.00
2023-05-14T06:00:22.597Z,462.00
2023-05-14T06:01:23.068Z,463.00
2023-05-14T06:02:24.021Z,462.00
2023-05-14T06:03:24.951Z,462.00
2023-05-14T06:04:25.853Z,462.00
2023-05-14T06:05:26.743Z,463.00
2023-05-14T06:06:27.712Z,463.00
2023-05-14T06:07:28.374Z,461.00
2023-05-14T06:08:29.226Z,463.00
2023-05-14T06:09:30.142Z,461.00
2023-05-14T06:10:31.006Z,461.00
2023-05-14T06:11:31.892Z,461.00
2023-05-14T06:12:32.740Z,458.00
2023-05-14T06:13:33.598Z,458.00
2023-05-14T06:14:34.511Z,459.00
2023-05-14T06:15:35.371Z,458.00
2023-05-14T06:16:36.276Z,457.00
2023-05-14T06:17:37.152Z,456.00
2023-05-14T06:18:38.036Z,458.00
2023-05-14T06:19:38.959Z,461.00
2023-05-14T06:20:39.819Z,460.00
2023-05-14T06:21:40.709Z,459.00
2023-05-14T06:22:41.553Z,459.00
2023-05-14T06:23:42.423Z,459.00
2023-05-14T06:24:43.318Z,460.00
2023-05-14T06:25:44.186Z,461.00
2023-05-14T06:26:45.124Z,461.00
2023-05-14T06:27:45.978Z,463.00
2023-05-14T06:28:46.823Z,464.00
2023-05-14T06:29:47.758Z,462.00
2023-05-14T06:30:48.618Z,464.00
2023-05-14T06:31:49.519Z,465.00
2023-05-14T06:32:50.370Z,468.00
2023-05-14T06:33:51.208Z,468.00
2023-05-14T06:34:52.083Z,468.00
2023-05-14T06:35:52.946Z,467.00
2023-05-14T06:36:53.820Z,469.00
2023-05-14T06:37:54.681Z,470.00
2023-05-14T06:38:55.555Z,472.00
2023-05-14T06:39:57.728Z,473.00
2023-05-14T06:40:57.372Z,477.00
2023-05-14T06:41:58.257Z,482.00
2023-05-14T06:42:59.105Z,482.00
2023-05-14T06:43:59.962Z,482.00
2023-05-14T06:45:00.867Z,484.00
2023-05-14T06:46:01.743Z,488.00
2023-05-14T06:47:02.598Z,488.00
2023-05-14T06:48:03.575Z,489.00
2023-05-14T06:49:03.997Z,489.00
2023-05-14T06:50:05.029Z,494.00
2023-05-14T06:51:05.393Z,498.00
2023-05-14T06:52:06.260Z,503.00
2023-05-14T06:53:07.125Z,505.00
2023-05-14T06:54:07.981Z,506.00
2023-05-14T06:55:08.971Z,511.00
2023-05-14T06:56:09.840Z,511.00
2023-05-14T06:57:10.736Z,515.00
2023-05-14T06:58:11.573Z,517.00
2023-05-14T06:59:12.421Z,519.00
2023-05-14T07:00:13.341Z,518.00
2023-05-14T07:01:14.221Z,520.00
2023-05-14T07:02:15.075Z,527.00
2023-05-14T07:03:15.940Z,532.00
2023-05-14T07:04:16.916Z,536.00
2023-05-14T07:05:17.776Z,540.00
2023-05-14T07:06:18.638Z,545.00
2023-05-14T07:07:19.507Z,555.00
2023-05-14T07:08:20.373Z,565.00
2023-05-14T07:09:21.232Z,571.00
2023-05-14T07:10:22.378Z,575.00
2023-05-14T07:11:23.033Z,575.00
2023-05-14T07:12:23.910Z,577.00
2023-05-14T07:13:26.380Z,575.00
2023-05-14T07:14:25.556Z,574.00
2023-05-14T07:15:26.469Z,575.00
2023-05-14T07:16:27.365Z,573.00
2023-05-14T07:17:28.361Z,571.00
2023-05-14T07:18:28.762Z,567.00
2023-05-14T07:19:29.638Z,563.00
2023-05-14T07:20:30.533Z,563.00
2023-05-14T07:21:31.396Z,563.00
2023-05-14T07:22:32.260Z,564.00
2023-05-14T07:23:33.126Z,565.00
2023-05-14T07:24:33.991Z,566.00
2023-05-14T07:25:34.908Z,566.00
2023-05-14T07:26:35.768Z,564.00
2023-05-14T07:27:36.653Z,564.00
2023-05-14T07:28:37.496Z,562.00
2023-05-14T07:29:38.361Z,559.00
2023-05-14T07:30:39.358Z,557.00
2023-05-14T07:31:39.747Z,556.00
2023-05-14T07:32:40.662Z,556.00
2023-05-14T07:33:41.176Z,556.00
2023-05-14T07:34:42.012Z,553.00
2023-05-14T07:35:43.012Z,553.00
2023-05-14T07:36:43.374Z,553.00
2023-05-14T07:37:44.242Z,553.00
2023-05-14T07:38:45.115Z,553.00
2023-05-14T07:39:45.979Z,557.00
2023-05-14T07:40:46.956Z,562.00
2023-05-14T07:41:47.806Z,565.00
2023-05-14T07:42:48.805Z,569.00
2023-05-14T07:43:50.512Z,572.00
2023-05-14T07:44:50.394Z,578.00
2023-05-14T07:45:51.305Z,583.00
2023-05-14T07:46:52.217Z,589.00
2023-05-14T07:47:53.131Z,590.00
2023-05-14T07:48:54.048Z,583.00
2023-05-14T07:49:54.862Z,577.00
2023-05-14T07:50:55.775Z,572.00
2023-05-14T07:51:56.630Z,565.00
2023-05-14T07:52:57.493Z,545.00
2023-05-14T07:53:58.359Z,518.00
2023-05-14T07:54:59.234Z,511.00
2023-05-14T07:56:00.175Z,506.00
2023-05-14T07:57:01.054Z,502.00
2023-05-14T07:58:01.907Z,505.00
2023-05-14T07:59:02.741Z,496.00
2023-05-14T08:00:03.605Z,487.00
2023-05-14T08:01:04.513Z,477.00
2023-05-14T08:02:05.460Z,469.00
2023-05-14T08:03:06.397Z,460.00
2023-05-14T08:04:07.380Z,453.00
2023-05-14T08:05:08.276Z,447.00
2023-05-14T08:06:09.168Z,441.00
2023-05-14T08:07:10.037Z,437.00
2023-05-14T08:08:10.896Z,432.00
2023-05-14T08:09:11.761Z,429.00
2023-05-14T08:10:12.621Z,424.00
2023-05-14T08:11:13.553Z,422.00
2023-05-14T08:12:14.384Z,421.00
2023-05-14T08:13:15.282Z,421.00
2023-05-14T08:14:16.113Z,420.00
2023-05-14T08:15:16.978Z,424.00
2023-05-14T08:16:17.920Z,427.00
2023-05-14T08:17:18.835Z,432.00
2023-05-14T08:18:19.671Z,430.00
2023-05-14T08:19:20.571Z,429.00
2023-05-14T08:20:21.469Z,430.00
2023-05-14T08:21:22.489Z,429.00
2023-05-14T08:22:22.856Z,428.00
2023-05-14T08:23:23.717Z,428.00
2023-05-14T08:24:24.599Z,429.00
2023-05-14T08:25:25.444Z,429.00
2023-05-14T08:26:26.337Z,428.00
2023-05-14T08:27:27.200Z,431.00
2023-05-14T08:28:28.092Z,432.00
2023-05-14T08:29:28.928Z,434.00
2023-05-14T08:30:29.825Z,435.00
2023-05-14T08:31:30.753Z,437.00
2023-05-14T08:32:31.623Z,438.00
2023-05-14T08:33:32.467Z,440.00
2023-05-14T08:34:33.343Z,440.00
2023-05-14T08:35:34.196Z,438.00
2023-05-14T08:36:35.106Z,437.00
2023-05-14T08:37:35.968Z,439.00
2023-05-14T08:38:36.838Z,437.00
2023-05-14T08:39:37.698Z,436.00
2023-05-14T08:40:38.572Z,438.00
2023-05-14T08:41:39.465Z,436.00
2023-05-14T08:42:40.330Z,438.00
2023-05-14T08:43:41.218Z,444.00
2023-05-14T08:44:42.058Z,444.00
2023-05-14T08:45:42.922Z,445.00
2023-05-14T08:46:43.827Z,448.00
2023-05-14T08:47:44.712Z,450.00
2023-05-14T08:48:45.609Z,454.00
2023-05-14T08:49:46.477Z,455.00
2023-05-14T08:50:47.331Z,458.00
2023-05-14T08:51:48.249Z,457.00
2023-05-14T08:52:49.099Z,454.00
2023-05-14T08:53:49.971Z,449.00
2023-05-14T08:54:50.841Z,447.00
2023-05-14T08:55:51.702Z,450.00
2023-05-14T08:56:52.603Z,453.00
2023-05-14T08:57:53.450Z,460.00
2023-05-14T08:58:54.333Z,470.00
2023-05-14T08:59:55.175Z,482.00
2023-05-14T09:00:56.038Z,491.00
2023-05-14T09:01:56.968Z,494.00
2023-05-14T09:02:57.833Z,494.00
2023-05-14T09:03:58.785Z,495.00
2023-05-14T09:04:59.613Z,497.00
2023-05-14T09:06:00.479Z,499.00
2023-05-14T09:07:01.375Z,499.00
2023-05-14T09:08:02.244Z,496.00
2023-05-14T09:09:03.105Z,492.00
2023-05-14T09:10:04.019Z,488.00
2023-05-14T09:11:04.880Z,477.00
2023-05-14T09:12:05.802Z,474.00
2023-05-14T09:13:06.654Z,471.00
2023-05-14T09:14:07.549Z,464.00
2023-05-14T09:15:08.395Z,460.00
2023-05-14T09:16:09.271Z,460.00
2023-05-14T09:17:10.153Z,467.00
2023-05-14T09:18:11.113Z,476.00
2023-05-14T09:19:11.613Z,487.00
2023-05-14T09:20:12.477Z,492.00
2023-05-14T09:21:13.326Z,494.00
2023-05-14T09:22:14.231Z,492.00
2023-05-14T09:23:15.097Z,493.00
2023-05-14T09:24:15.961Z,499.00
2023-05-14T09:25:16.864Z,506.00
2023-05-14T09:26:17.684Z,501.00
2023-05-14T09:27:18.600Z,501.00
2023-05-14T09:28:19.468Z,516.00
2023-05-14T09:29:20.346Z,515.00
2023-05-14T09:30:21.258Z,512.00
2023-05-14T09:31:22.148Z,518.00
2023-05-14T09:32:23.080Z,522.00
2023-05-14T09:33:23.905Z,520.00
2023-05-14T09:34:24.817Z,519.00
2023-05-14T09:35:25.635Z,516.00
2023-05-14T09:36:26.499Z,511.00
2023-05-14T09:37:27.435Z,506.00
2023-05-14T09:38:28.294Z,513.00
2023-05-14T09:39:29.154Z,517.00
2023-05-14T09:40:30.153Z,518.00
2023-05-14T09:41:30.536Z,523.00
2023-05-14T09:42:31.437Z,524.00
2023-05-14T09:43:32.320Z,517.00
2023-05-14T09:44:33.188Z,506.00
2023-05-14T09:45:34.026Z,497.00
2023-05-14T09:46:34.889Z,496.00
2023-05-14T09:47:35.870Z,506.00
2023-05-14T09:48:36.734Z,510.00
2023-05-14T09:49:37.636Z,514.00
2023-05-14T09:50:38.506Z,513.00
2023-05-14T09:51:39.363Z,509.00
2023-05-14T09:52:40.265Z,499.00
2023-05-14T09:53:41.130Z,495.00
2023-05-14T09:54:41.991Z,486.00
2023-05-14T09:55:42.855Z,488.00
2023-05-14T09:56:43.719Z,501.00
2023-05-14T09:57:44.699Z,507.00
2023-05-14T09:58:45.596Z,513.00
2023-05-14T09:59:46.448Z,517.00
2023-05-14T10:00:47.361Z,514.00
2023-05-14T10:01:48.193Z,509.00
2023-05-14T10:02:49.154Z,503.00
2023-05-14T10:03:49.990Z,499.00
2023-05-14T10:04:50.960Z,498.00
2023-05-14T10:05:51.846Z,495.00
2023-05-14T10:06:52.702Z,489.00
2023-05-14T10:07:53.606Z,489.00
2023-05-14T10:08:54.472Z,493.00
2023-05-14T10:09:56.693Z,495.00
2023-05-14T10:10:55.940Z,496.00
2023-05-14T10:11:56.807Z,493.00
2023-05-14T10:12:57.717Z,494.00
2023-05-14T10:13:58.563Z,492.00
2023-05-14T10:14:59.444Z,489.00
2023-05-14T10:16:00.287Z,492.00
2023-05-14T10:17:01.168Z,498.00
2023-05-14T10:18:02.093Z,502.00
2023-05-14T10:19:03.091Z,507.00
2023-05-14T10:20:03.433Z,511.00
2023-05-14T10:21:04.297Z,515.00
2023-05-14T10:22:05.163Z,512.00
2023-05-14T10:23:06.065Z,506.00
2023-05-14T10:24:06.945Z,500.00
2023-05-14T10:25:07.806Z,498.00
2023-05-14T10:26:08.665Z,497.00
2023-05-14T10:27:09.537Z,499.00
2023-05-14T10:28:10.442Z,498.00
2023-05-14T10:29:11.294Z,498.00
2023-05-14T10:30:12.176Z,502.00
2023-05-14T10:31:13.054Z,503.00
2023-05-14T10:32:13.903Z,505.00
2023-05-14T10:33:14.840Z,505.00
2023-05-14T10:34:15.693Z,508.00
2023-05-14T10:35:16.560Z,511.00
2023-05-14T10:36:17.430Z,509.00
2023-05-14T10:37:18.286Z,512.00
2023-05-14T10:38:19.181Z,516.00
2023-05-14T10:39:20.064Z,521.00
2023-05-14T10:40:21.004Z,524.00
2023-05-14T10:41:21.888Z,522.00
2023-05-14T10:42:22.708Z,519.00
2023-05-14T10:43:23.612Z,512.00
2023-05-14T10:44:24.485Z,510.00
2023-05-14T10:45:25.398Z,503.00
2023-05-14T10:46:26.326Z,502.00
2023-05-14T10:47:27.153Z,508.00
2023-05-14T10:48:28.145Z,515.00
2023-05-14T10:49:39.802Z,517.00
2023-05-14T10:50:30.274Z,519.00
2023-05-14T10:51:30.158Z,524.00
2023-05-14T10:52:31.009Z,525.00
2023-05-14T10:53:31.902Z,532.00
2023-05-14T10:54:32.781Z,533.00
2023-05-14T10:55:33.631Z,534.00
2023-05-14T10:56:34.500Z,533.00
2023-05-14T10:57:35.377Z,527.00
2023-05-14T10:58:36.277Z,513.00
2023-05-14T10:59:37.144Z,507.00
2023-05-14T11:00:38.032Z,505.00
2023-05-14T11:01:38.900Z,506.00
2023-05-14T11:02:39.788Z,510.00
2023-05-14T11:03:40.712Z,510.00
2023-05-14T11:04:41.553Z,513.00
2023-05-14T11:05:42.410Z,516.00
2023-05-14T11:06:43.284Z,512.00
2023-05-14T11:07:44.147Z,507.00
2023-05-14T11:08:45.010Z,502.00
2023-05-14T11:09:45.884Z,500.00
2023-05-14T11:10:46.752Z,501.00
2023-05-14T11:11:47.617Z,499.00
2023-05-14T11:12:48.504Z,499.00
2023-05-14T11:13:49.345Z,501.00
2023-05-14T11:14:50.213Z,505.00
2023-05-14T11:15:51.112Z,508.00
2023-05-14T11:16:51.971Z,510.00
2023-05-14T11:17:52.837Z,514.00
2023-05-14T11:18:53.757Z,515.00
2023-05-14T11:19:54.609Z,518.00
2023-05-14T11:20:55.507Z,523.00
2023-05-14T11:21:56.366Z,529.00
2023-05-14T11:22:57.233Z,530.00
2023-05-14T11:23:58.093Z,532.00
2023-05-14T11:24:58.971Z,534.00
2023-05-14T11:25:59.907Z,537.00
2023-05-14T11:27:00.724Z,537.00
2023-05-14T11:28:01.587Z,535.00
2023-05-14T11:29:02.455Z,538.00
2023-05-14T11:30:03.354Z,540.00
2023-05-14T11:31:04.256Z,536.00
2023-05-14T11:32:05.188Z,534.00
2023-05-14T11:33:06.065Z,532.00
2023-05-14T11:34:06.897Z,531.00
2023-05-14T11:35:07.761Z,523.00
2023-05-14T11:36:08.646Z,519.00
2023-05-14T11:37:09.513Z,519.00
2023-05-14T11:38:10.374Z,522.00
2023-05-14T11:39:11.237Z,520.00
2023-05-14T11:40:12.098Z,523.00
2023-05-14T11:41:12.987Z,525.00
2023-05-14T11:42:13.863Z,529.00
2023-05-14T11:43:14.715Z,532.00
2023-05-14T11:44:15.597Z,532.00
2023-05-14T11:45:16.465Z,529.00
2023-05-14T11:46:17.561Z,526.00
2023-05-14T11:47:17.955Z,528.00
2023-05-14T11:48:18.818Z,526.00
2023-05-14T11:49:19.683Z,526.00
2023-05-14T11:50:20.551Z,527.00
2023-05-14T11:51:21.454Z,526.00
2023-05-14T11:52:22.306Z,524.00
2023-05-14T11:53:23.170Z,521.00
2023-05-14T11:54:24.068Z,523.00
2023-05-14T11:55:24.931Z,527.00
2023-05-14T11:56:25.826Z,531.00
2023-05-14T11:57:26.689Z,528.00
2023-05-14T11:58:27.555Z,521.00
2023-05-14T11:59:28.423Z,506.00
2023-05-14T12:00:29.287Z,491.00
2023-05-14T12:01:30.219Z,482.00
2023-05-14T12:02:31.099Z,477.00
2023-05-14T12:03:32.115Z,466.00
2023-05-14T12:04:32.574Z,456.00
2023-05-14T12:05:33.434Z,451.00
2023-05-14T12:06:34.436Z,449.00
2023-05-14T12:07:35.286Z,450.00
2023-05-14T12:08:36.169Z,449.00
2023-05-14T12:09:37.008Z,446.00
2023-05-14T12:10:37.869Z,449.00
2023-05-14T12:11:38.754Z,447.00
2023-05-14T12:12:39.633Z,448.00
2023-05-14T12:13:40.483Z,445.00
2023-05-14T12:14:41.345Z,441.00
2023-05-14T12:15:42.261Z,436.00
2023-05-14T12:16:43.229Z,432.00
2023-05-14T12:17:43.614Z,430.00
2023-05-14T12:18:44.552Z,430.00
2023-05-14T12:19:45.417Z,426.00
2023-05-14T12:20:46.293Z,424.00
2023-05-14T12:21:47.193Z,422.00
2023-05-14T12:22:48.055Z,424.00
2023-05-14T12:23:48.933Z,426.00
2023-05-14T12:24:49.786Z,426.00
2023-05-14T12:25:50.647Z,426.00
2023-05-14T12:26:51.786Z,427.00
2023-05-14T12:27:52.147Z,429.00
2023-05-14T12:28:53.012Z,427.00
2023-05-14T12:29:53.878Z,427.00
2023-05-14T12:30:54.741Z,425.00
2023-05-14T12:31:55.825Z,424.00
2023-05-14T12:32:56.257Z,423.00
2023-05-14T12:33:57.102Z,423.00
2023-05-14T12:34:57.958Z,422.00
2023-05-14T12:36:00.516Z,420.00
2023-05-14T12:37:00.605Z,419.00
2023-05-14T12:38:00.469Z,419.00
2023-05-14T12:39:01.334Z,420.00